createdAt,value
2018-02-13T00:00:12.144Z,16.03
2018-02-13T00:02:41.351Z,14.53
2018-02-13T00:05:10.510Z,16.33
2018-02-13T00:07:40.479Z,17.43
2018-02-13T00:10:09.902Z,16.17
2018-02-13T00:12:58.475Z,15.20
2018-02-13T00:15:27.753Z,17.67
2018-02-13T00:17:57.028Z,18.27
2018-02-13T00:20:26.312Z,17.97
2018-02-13T00:23:00.539Z,17.03
2018-02-13T00:25:29.854Z,15.30
2018-02-13T00:27:59.148Z,15.53
2018-02-13T00:30:28.376Z,17.90
2018-02-13T00:32:57.612Z,16.77
2018-02-13T00:35:26.851Z,18.23
2018-02-13T00:37:56.869Z,17.83
2018-02-13T00:40:26.115Z,17.10
2018-02-13T00:42:55.373Z,15.43
2018-02-13T00:45:24.645Z,15.27
2018-02-13T00:47:54.088Z,16.33
2018-02-13T00:50:23.325Z,16.97
2018-02-13T00:52:52.550Z,16.23
2018-02-13T00:55:21.757Z,15.37
2018-02-13T00:57:51.723Z,17.87
2018-02-13T01:00:20.980Z,17.00
2018-02-13T01:02:51.232Z,18.73
2018-02-13T01:05:21.222Z,17.73
2018-02-13T01:07:50.485Z,17.93
2018-02-13T01:10:19.842Z,17.33
2018-02-13T01:12:49.124Z,17.70
2018-02-13T01:15:18.472Z,18.13
2018-02-13T01:17:47.721Z,16.37
2018-02-13T01:20:23.866Z,19.37
2018-02-13T01:22:53.081Z,17.63
2018-02-13T01:25:23.190Z,15.63
2018-02-13T01:27:53.005Z,17.47
2018-02-13T01:30:22.233Z,16.07
2018-02-13T01:32:51.557Z,15.87
2018-02-13T01:35:20.821Z,14.47
2018-02-13T01:37:50.106Z,18.87
2018-02-13T01:40:19.495Z,19.77
2018-02-13T01:42:48.732Z,15.70
2018-02-13T01:45:17.935Z,16.07
2018-02-13T01:47:47.157Z,16.13
2018-02-13T01:50:26.012Z,16.90
2018-02-13T01:52:55.312Z,18.00
2018-02-13T01:55:24.549Z,14.40
2018-02-13T01:57:53.776Z,15.40
2018-02-13T02:00:23.045Z,16.10
2018-02-13T02:02:54.442Z,15.70
2018-02-13T02:05:24.256Z,16.30
2018-02-13T02:07:54.214Z,15.63
2018-02-13T02:10:23.479Z,14.83
2018-02-13T02:12:52.758Z,15.60
2018-02-13T02:15:22.167Z,15.07
2018-02-13T02:17:51.433Z,16.60
2018-02-13T02:20:21.432Z,16.33
2018-02-13T02:22:51.644Z,13.67
2018-02-13T02:25:21.684Z,15.83
2018-02-13T02:27:50.892Z,13.30
2018-02-13T02:30:20.185Z,15.20
2018-02-13T02:32:49.441Z,17.43
2018-02-13T02:35:18.687Z,15.00
2018-02-13T02:37:47.956Z,14.57
2018-02-13T02:40:29.916Z,15.50
2018-02-13T02:43:05.994Z,14.23
2018-02-13T02:45:35.259Z,13.13
2018-02-13T02:48:04.567Z,14.63
2018-02-13T02:50:34.607Z,16.27
2018-02-13T02:53:04.717Z,16.87
2018-02-13T02:55:33.955Z,14.63
2018-02-13T02:58:03.230Z,12.43
2018-02-13T03:00:32.524Z,11.80
2018-02-13T03:03:02.471Z,11.53
2018-02-13T03:05:31.786Z,13.73
2018-02-13T03:08:01.095Z,13.13
2018-02-13T03:10:30.320Z,12.07
2018-02-13T03:12:59.586Z,13.17
2018-02-13T03:15:28.865Z,12.83
2018-02-13T03:17:58.187Z,12.13
2018-02-13T03:20:28.225Z,12.43
2018-02-13T03:22:57.537Z,14.47
2018-02-13T03:25:26.770Z,13.30
2018-02-13T03:27:56.104Z,15.13
2018-02-13T03:30:25.368Z,13.63
2018-02-13T03:32:55.449Z,13.20
2018-02-13T03:35:24.688Z,10.97
2018-02-13T03:37:54.194Z,14.50
2018-02-13T03:40:23.482Z,13.90
2018-02-13T03:42:52.737Z,12.20
2018-02-13T03:45:22.745Z,12.37
2018-02-13T03:47:52.052Z,14.20
2018-02-13T03:50:21.307Z,12.40
2018-02-13T03:53:17.040Z,13.77
2018-02-13T03:55:47.025Z,11.67
2018-02-13T03:58:16.282Z,13.83
2018-02-13T04:00:45.605Z,14.10
2018-02-13T04:03:22.263Z,12.67
2018-02-13T04:05:52.306Z,13.30
2018-02-13T04:08:21.573Z,13.70
2018-02-13T04:10:50.903Z,12.33
2018-02-13T04:13:20.224Z,13.73
2018-02-13T04:15:49.518Z,13.63
2018-02-13T04:18:18.689Z,13.03
2018-02-13T04:20:47.945Z,14.90
2018-02-13T04:23:17.913Z,14.57
2018-02-13T04:25:47.932Z,14.43
2018-02-13T04:28:17.155Z,16.33
2018-02-13T04:30:47.120Z,14.27
2018-02-13T04:33:16.360Z,13.43
2018-02-13T04:35:45.606Z,15.63
2018-02-13T04:38:15.679Z,14.03
2018-02-13T04:40:44.920Z,14.53
2018-02-13T04:43:14.135Z,15.10
2018-02-13T04:45:43.404Z,14.43
2018-02-13T04:48:12.672Z,16.37
2018-02-13T04:50:42.705Z,14.63
2018-02-13T04:53:12.022Z,15.97
2018-02-13T04:55:45.990Z,18.67
2018-02-13T04:58:17.105Z,17.57
2018-02-13T05:00:47.174Z,16.87
2018-02-13T05:03:16.423Z,16.07
2018-02-13T05:05:45.616Z,16.47
2018-02-13T05:08:14.865Z,17.03
2018-02-13T05:10:44.104Z,15.13
2018-02-13T05:13:14.422Z,15.27
2018-02-13T05:15:44.963Z,17.93
2018-02-13T05:18:14.257Z,17.10
2018-02-13T05:20:43.523Z,17.23
2018-02-13T05:23:12.771Z,15.10
2018-02-13T05:25:41.982Z,19.67
2018-02-13T05:28:11.182Z,21.27
2018-02-13T05:30:40.449Z,17.70
2018-02-13T05:33:09.701Z,18.10
2018-02-13T05:35:39.007Z,15.43
2018-02-13T05:38:08.346Z,18.60
2018-02-13T05:40:37.553Z,16.57
2018-02-13T05:43:06.816Z,17.47
2018-02-13T05:48:46.627Z,19.00
2018-02-13T05:51:15.982Z,18.03
2018-02-13T05:53:57.360Z,18.70
2018-02-13T05:56:51.626Z,18.53
2018-02-13T05:59:21.099Z,20.10
2018-02-13T06:01:50.507Z,16.60
2018-02-13T06:04:20.645Z,18.50
2018-02-13T06:06:51.630Z,15.50
2018-02-13T06:09:29.176Z,16.17
2018-02-13T06:11:58.419Z,18.37
2018-02-13T06:14:27.812Z,18.47
2018-02-13T06:16:57.137Z,17.70
2018-02-13T06:19:26.459Z,16.40
2018-02-13T06:21:55.878Z,17.60
2018-02-13T06:27:35.460Z,16.97
2018-02-13T06:30:14.925Z,20.07
2018-02-13T06:32:44.282Z,17.00
2018-02-13T06:35:13.647Z,17.63
2018-02-13T06:37:42.898Z,16.83
2018-02-13T06:40:12.185Z,18.37
2018-02-13T06:42:41.435Z,15.73
2018-02-13T06:45:10.643Z,14.47
2018-02-13T06:47:39.920Z,14.73
2018-02-13T06:50:09.135Z,16.80
2018-02-13T06:52:38.355Z,16.40
2018-02-13T06:55:07.644Z,14.50
2018-02-13T06:57:36.920Z,16.43
2018-02-13T07:00:06.177Z,14.10
2018-02-13T07:02:35.430Z,16.33
2018-02-13T07:05:04.672Z,15.50
2018-02-13T07:07:34.699Z,15.30
2018-02-13T07:10:03.936Z,15.37
2018-02-13T07:12:33.207Z,15.00
2018-02-13T07:15:02.472Z,14.03
2018-02-13T07:17:31.773Z,16.60
2018-02-13T07:20:01.016Z,14.60
2018-02-13T07:22:30.281Z,16.77
2018-02-13T07:24:59.510Z,17.20
2018-02-13T07:27:28.789Z,14.17
2018-02-13T07:29:58.805Z,18.17
2018-02-13T07:32:28.059Z,15.27
2018-02-13T07:34:57.348Z,16.07
2018-02-13T07:37:26.650Z,17.27
2018-02-13T07:39:55.962Z,16.70
2018-02-13T07:42:25.232Z,15.40
2018-02-13T07:44:54.492Z,15.07
2018-02-13T07:47:23.738Z,14.40
2018-02-13T07:49:52.983Z,17.73
2018-02-13T07:52:22.300Z,15.33
2018-02-13T07:54:51.578Z,17.53
2018-02-13T07:57:20.815Z,15.80
2018-02-13T07:59:50.138Z,16.30
2018-02-13T08:02:20.155Z,13.67
2018-02-13T08:04:50.136Z,16.33
2018-02-13T08:07:19.363Z,17.43
2018-02-13T08:09:48.575Z,16.37
2018-02-13T08:12:17.901Z,16.40
2018-02-13T08:14:47.172Z,16.93
2018-02-13T08:17:16.442Z,13.27
2018-02-13T08:19:45.646Z,16.30
2018-02-13T08:22:14.835Z,15.03
2018-02-13T08:24:44.077Z,16.00
2018-02-13T08:27:13.310Z,13.83
2018-02-13T08:29:42.592Z,13.97
2018-02-13T08:32:11.888Z,13.83
2018-02-13T08:34:41.133Z,13.20
2018-02-13T08:37:11.159Z,14.93
2018-02-13T08:39:41.215Z,13.47
2018-02-13T08:42:11.202Z,12.50
2018-02-13T08:44:40.506Z,13.97
2018-02-13T08:47:09.735Z,14.63
2018-02-13T08:49:39.768Z,13.50
2018-02-13T08:52:08.969Z,13.53
2018-02-13T08:54:38.170Z,15.80
2018-02-13T08:57:07.366Z,13.87
2018-02-13T08:59:36.801Z,12.37
2018-02-13T09:02:06.089Z,16.77
2018-02-13T09:04:35.366Z,14.77
2018-02-13T09:07:05.295Z,15.43
2018-02-13T09:09:34.588Z,16.27
2018-02-13T09:12:04.597Z,15.90
2018-02-13T09:14:33.851Z,16.33
2018-02-13T09:17:03.078Z,14.93
2018-02-13T09:19:32.486Z,13.93
2018-02-13T09:22:10.106Z,14.83
2018-02-13T09:24:40.177Z,14.27
2018-02-13T09:27:09.411Z,13.40
2018-02-13T09:29:38.604Z,14.00
2018-02-13T09:32:08.734Z,12.17
2018-02-13T09:34:37.968Z,12.60
2018-02-13T09:37:07.244Z,14.37
2018-02-13T09:39:36.498Z,13.03
2018-02-13T09:42:06.495Z,13.30
2018-02-13T09:44:35.901Z,12.87
2018-02-13T09:47:05.097Z,11.27
2018-02-13T09:49:34.368Z,12.43
2018-02-13T09:52:04.326Z,14.80
2018-02-13T09:54:33.565Z,15.23
2018-02-13T09:57:04.374Z,14.03
2018-02-13T09:59:33.744Z,14.73
2018-02-13T10:02:02.984Z,11.83
2018-02-13T10:04:32.286Z,13.10
2018-02-13T10:07:02.239Z,11.73
2018-02-13T10:09:31.514Z,14.63
2018-02-13T10:12:00.763Z,13.87
2018-02-13T10:14:29.968Z,14.23
2018-02-13T10:16:59.258Z,14.97
2018-02-13T10:19:28.509Z,13.00
2018-02-13T10:21:57.798Z,13.37
2018-02-13T10:24:27.052Z,11.97
2018-02-13T10:26:56.382Z,12.87
2018-02-13T10:29:25.651Z,13.77
2018-02-13T10:31:55.009Z,15.23
2018-02-13T10:34:24.225Z,15.67
2018-02-13T10:36:53.936Z,15.10
2018-02-13T10:39:23.525Z,15.03
2018-02-13T10:41:52.778Z,14.77
2018-02-13T10:44:22.052Z,15.47
2018-02-13T10:46:51.289Z,14.63
2018-02-13T10:49:20.535Z,14.63
2018-02-13T10:51:49.762Z,13.70
2018-02-13T10:54:19.041Z,13.17
2018-02-13T10:56:48.299Z,15.50
2018-02-13T10:59:18.286Z,15.47
2018-02-13T11:01:47.506Z,13.93
2018-02-13T11:04:18.284Z,13.60
2018-02-13T11:06:48.286Z,13.33
2018-02-13T11:09:17.489Z,14.90
2018-02-13T11:11:46.740Z,14.50
2018-02-13T11:14:15.995Z,14.17
2018-02-13T11:16:45.170Z,13.33
2018-02-13T11:19:14.407Z,14.33
2018-02-13T11:21:43.736Z,14.73
2018-02-13T11:24:12.958Z,13.17
2018-02-13T11:26:42.229Z,13.10
2018-02-13T11:29:11.477Z,14.10
2018-02-13T11:31:40.725Z,13.43
2018-02-13T11:34:09.936Z,16.20
2018-02-13T11:36:39.143Z,13.80
2018-02-13T11:39:08.457Z,13.20
2018-02-13T11:41:37.659Z,13.07
2018-02-13T11:44:06.927Z,12.60
2018-02-13T11:46:36.140Z,13.60
2018-02-13T11:49:05.432Z,13.47
2018-02-13T11:51:34.638Z,13.53
2018-02-13T11:54:04.662Z,13.80
2018-02-13T11:56:33.892Z,13.33
2018-02-13T11:59:03.231Z,14.33
2018-02-13T12:01:32.488Z,12.57
2018-02-13T12:04:01.774Z,14.63
2018-02-13T12:06:31.173Z,14.37
2018-02-13T12:09:00.483Z,14.60
2018-02-13T12:11:29.902Z,13.73
2018-02-13T12:13:59.117Z,14.20
2018-02-13T12:16:28.411Z,11.73
2018-02-13T12:18:57.635Z,12.03
2018-02-13T12:21:26.791Z,12.13
2018-02-13T12:23:56.098Z,11.07
2018-02-13T12:26:25.360Z,11.53
2018-02-13T12:28:54.621Z,9.77
2018-02-13T12:31:23.919Z,9.80
2018-02-13T12:33:53.138Z,7.53
2018-02-13T12:36:22.395Z,7.40
2018-02-13T12:38:51.646Z,6.40
2018-02-13T12:41:21.699Z,7.67
2018-02-13T12:43:51.738Z,9.07
2018-02-13T12:46:20.942Z,6.97
2018-02-13T12:48:50.963Z,5.63
2018-02-13T12:51:20.210Z,3.83
2018-02-13T12:53:49.434Z,3.60
2018-02-13T12:56:18.710Z,3.53
2018-02-13T12:58:47.896Z,3.77
2018-02-13T13:01:17.190Z,4.87
2018-02-13T13:03:46.394Z,4.30
2018-02-13T13:06:15.571Z,4.47
2018-02-13T13:08:44.785Z,5.10
2018-02-13T13:11:14.858Z,5.07
2018-02-13T13:13:44.174Z,5.00
2018-02-13T13:16:13.339Z,4.70
2018-02-13T13:18:43.279Z,4.63
2018-02-13T13:21:13.262Z,4.20
2018-02-13T13:23:42.544Z,4.03
2018-02-13T13:26:11.868Z,3.53
2018-02-13T13:28:41.089Z,4.97
2018-02-13T13:31:10.279Z,4.37
2018-02-13T13:33:39.528Z,5.03
2018-02-13T13:36:08.745Z,5.60
2018-02-13T13:38:37.989Z,3.60
2018-02-13T13:41:07.313Z,2.67
2018-02-13T13:43:36.747Z,2.80
2018-02-13T13:46:05.901Z,2.67
2018-02-13T13:48:35.147Z,3.10
2018-02-13T13:51:04.393Z,2.70
2018-02-13T13:53:33.602Z,3.23
2018-02-13T13:56:02.843Z,2.70
2018-02-13T13:58:32.825Z,2.60
2018-02-13T14:01:02.149Z,3.23
2018-02-13T14:03:31.336Z,2.50
2018-02-13T14:06:00.569Z,2.97
2018-02-13T14:08:29.794Z,3.03
2018-02-13T14:10:58.987Z,2.70
2018-02-13T14:13:28.205Z,3.00
2018-02-13T14:15:58.243Z,3.20
2018-02-13T14:18:27.480Z,2.77
2018-02-13T14:20:57.502Z,2.60
2018-02-13T14:23:26.700Z,3.43
2018-02-13T14:25:55.897Z,2.60
2018-02-13T14:28:25.165Z,2.50
2018-02-13T14:30:54.381Z,2.77
2018-02-13T14:33:24.341Z,2.50
2018-02-13T14:35:53.618Z,2.67
2018-02-13T14:38:23.633Z,3.10
2018-02-13T14:40:52.832Z,3.40
2018-02-13T14:43:22.084Z,3.57
2018-02-13T14:45:51.313Z,2.87
2018-02-13T14:48:20.536Z,3.33
2018-02-13T14:50:49.794Z,3.40
2018-02-13T14:53:19.040Z,3.30
2018-02-13T14:55:48.272Z,4.03
2018-02-13T14:58:17.492Z,3.40
2018-02-13T15:00:46.695Z,3.40
2018-02-13T15:03:16.008Z,2.87
2018-02-13T15:05:45.415Z,2.53
2018-02-13T15:08:14.634Z,2.50
2018-02-13T15:10:43.824Z,2.33
2018-02-13T15:13:13.029Z,2.67
2018-02-13T15:15:42.265Z,3.60
2018-02-13T15:18:13.211Z,3.13
2018-02-13T15:20:42.444Z,3.57
2018-02-13T15:23:11.740Z,3.10
2018-02-13T15:25:40.957Z,3.60
2018-02-13T15:28:10.237Z,3.50
2018-02-13T15:30:39.442Z,3.20
2018-02-13T15:33:08.680Z,3.33
2018-02-13T15:35:37.910Z,3.50
2018-02-13T15:38:07.211Z,3.57
2018-02-13T15:40:36.425Z,3.00
2018-02-13T15:43:05.657Z,3.83
2018-02-13T15:45:34.866Z,3.80
2018-02-13T15:48:04.096Z,3.30
2018-02-13T15:50:33.586Z,3.30
2018-02-13T15:53:02.828Z,4.07
2018-02-13T15:55:32.018Z,3.83
2018-02-13T15:58:01.261Z,3.70
2018-02-13T16:00:31.333Z,3.13
2018-02-13T16:03:00.560Z,3.20
2018-02-13T16:05:29.766Z,3.73
2018-02-13T16:07:59.171Z,3.50
2018-02-13T16:10:28.424Z,3.77
2018-02-13T16:12:57.676Z,3.03
2018-02-13T16:15:26.883Z,3.20
2018-02-13T16:17:56.144Z,3.43
2018-02-13T16:20:26.140Z,3.90
2018-02-13T16:22:55.437Z,3.70
2018-02-13T16:25:24.686Z,3.03
2018-02-13T16:27:53.899Z,3.27
2018-02-13T16:30:23.175Z,3.13
2018-02-13T16:32:52.359Z,3.50
2018-02-13T16:35:21.615Z,3.60
2018-02-13T16:37:50.849Z,3.17
2018-02-13T16:40:20.896Z,3.80
2018-02-13T16:42:50.177Z,3.73
2018-02-13T16:45:19.721Z,3.93
2018-02-13T16:47:48.982Z,4.10
2018-02-13T16:50:18.199Z,4.67
2018-02-13T16:52:47.429Z,5.20
2018-02-13T16:55:16.646Z,4.07
2018-02-13T16:57:45.900Z,5.17
2018-02-13T17:00:15.913Z,5.00
2018-02-13T17:02:45.191Z,5.77
2018-02-13T17:05:14.356Z,5.53
2018-02-13T17:07:43.563Z,6.13
2018-02-13T17:10:13.533Z,4.70
2018-02-13T17:12:42.780Z,5.70
2018-02-13T17:15:12.076Z,6.70
2018-02-13T17:17:42.148Z,6.90
2018-02-13T17:20:11.516Z,7.40
2018-02-13T17:22:40.827Z,8.20
2018-02-13T17:25:10.074Z,8.10
2018-02-13T17:27:39.302Z,8.37
2018-02-13T17:30:08.556Z,8.90
2018-02-13T17:32:37.741Z,9.00
2018-02-13T17:35:07.035Z,9.50
2018-02-13T17:37:37.002Z,8.67
2018-02-13T17:40:06.331Z,10.23
2018-02-13T17:42:35.576Z,9.80
2018-02-13T17:45:05.592Z,9.93
2018-02-13T17:47:34.912Z,10.20
2018-02-13T17:50:04.947Z,10.30
2018-02-13T17:52:34.181Z,10.13
2018-02-13T17:55:03.455Z,10.00
2018-02-13T17:57:33.469Z,10.90
2018-02-13T18:00:02.788Z,9.97
2018-02-13T18:02:32.040Z,9.80
2018-02-13T18:05:02.128Z,9.53
2018-02-13T18:07:31.375Z,8.90
2018-02-13T18:10:01.414Z,10.10
2018-02-13T18:12:31.497Z,9.90
2018-02-13T18:15:00.717Z,9.67
2018-02-13T18:17:29.982Z,10.43
2018-02-13T18:19:59.263Z,9.60
2018-02-13T18:22:28.488Z,10.47
2018-02-13T18:24:57.860Z,11.03
2018-02-13T18:27:27.172Z,11.33
2018-02-13T18:29:56.451Z,11.27
2018-02-13T18:32:25.707Z,10.53
2018-02-13T18:34:55.728Z,11.00
2018-02-13T18:37:24.932Z,10.17
2018-02-13T18:39:54.176Z,9.33
2018-02-13T18:42:24.250Z,9.83
2018-02-13T18:44:53.758Z,9.90
2018-02-13T18:47:22.976Z,10.07
2018-02-13T18:49:52.270Z,10.50
2018-02-13T18:54:51.530Z,9.30
2018-02-13T18:57:20.754Z,11.90
2018-02-13T18:59:50.002Z,10.77
2018-02-13T19:02:19.295Z,10.43
2018-02-13T19:04:48.598Z,11.50
2018-02-13T19:07:17.906Z,10.80
2018-02-13T19:09:47.348Z,10.97
2018-02-13T19:12:16.672Z,11.00
2018-02-13T19:14:45.863Z,11.17
2018-02-13T19:19:44.346Z,10.73
2018-02-13T19:22:13.616Z,10.80
2018-02-13T19:24:42.866Z,10.43
2018-02-13T19:27:12.839Z,10.57
2018-02-13T19:29:42.257Z,11.30
2018-02-13T19:32:11.549Z,10.07
2018-02-13T19:34:40.892Z,11.03
2018-02-13T19:37:10.121Z,9.73
2018-02-13T19:39:39.412Z,9.23
2018-02-13T19:42:08.625Z,11.20
2018-02-13T19:44:37.879Z,11.07
2018-02-13T19:47:07.854Z,9.83
2018-02-13T19:49:37.175Z,11.00
2018-02-13T19:52:06.437Z,10.47
2018-02-13T19:54:35.734Z,10.80
2018-02-13T19:57:05.753Z,10.53
2018-02-13T19:59:35.767Z,10.70
2018-02-13T20:02:04.989Z,10.87
2018-02-13T20:04:35.043Z,10.37
2018-02-13T20:07:04.330Z,10.07
2018-02-13T20:09:33.532Z,10.47
2018-02-13T20:12:02.773Z,10.87
2018-02-13T20:14:32.076Z,9.67
2018-02-13T20:17:02.095Z,11.97
2018-02-13T20:19:31.391Z,11.67
2018-02-13T20:22:00.679Z,9.77
2018-02-13T20:24:29.908Z,10.03
2018-02-13T20:26:59.232Z,10.93
2018-02-13T20:29:28.500Z,10.50
2018-02-13T20:31:57.764Z,10.43
2018-02-13T20:34:26.974Z,9.93
2018-02-13T20:36:56.392Z,9.27
2018-02-13T20:39:25.804Z,9.37
2018-02-13T20:41:55.057Z,10.10
2018-02-13T20:44:28.883Z,10.70
2018-02-13T20:47:01.020Z,11.50
2018-02-13T20:49:30.305Z,11.83
2018-02-13T20:51:59.537Z,11.53
2018-02-13T20:54:28.806Z,12.00
2018-02-13T20:56:58.783Z,12.27
2018-02-13T20:59:28.845Z,13.37
2018-02-13T21:01:58.107Z,12.77
2018-02-13T21:04:27.397Z,12.63
2018-02-13T21:06:56.685Z,11.27
2018-02-13T21:09:25.944Z,12.87
2018-02-13T21:11:55.156Z,12.87
2018-02-13T21:14:24.430Z,11.97
2018-02-13T21:16:54.428Z,12.00
2018-02-13T21:19:23.658Z,11.93
2018-02-13T21:21:52.909Z,11.37
2018-02-13T21:24:22.094Z,12.37
2018-02-13T21:26:53.297Z,11.23
2018-02-13T21:29:22.600Z,12.20
2018-02-13T21:31:51.875Z,11.37
2018-02-13T21:34:21.134Z,11.73
2018-02-13T21:36:50.363Z,11.80
2018-02-13T21:39:19.614Z,12.13
2018-02-13T21:41:49.647Z,12.07
2018-02-13T21:44:18.896Z,11.37
2018-02-13T21:46:48.175Z,11.87
2018-02-13T21:49:18.248Z,12.70
2018-02-13T21:51:47.521Z,12.00
2018-02-13T21:54:37.584Z,12.90
2018-02-13T21:57:07.823Z,12.07
2018-02-13T21:59:37.121Z,10.60
2018-02-13T22:02:11.355Z,11.20
2018-02-13T22:04:40.591Z,10.63
2018-02-13T22:07:10.572Z,11.47
2018-02-13T22:09:39.811Z,11.87
2018-02-13T22:12:09.110Z,11.03
2018-02-13T22:14:38.344Z,12.37
2018-02-13T22:17:07.706Z,10.27
2018-02-13T22:19:36.996Z,11.03
2018-02-13T22:22:06.252Z,10.93
2018-02-13T22:24:35.492Z,10.60
2018-02-13T22:27:04.764Z,9.33
2018-02-13T22:29:33.935Z,11.33
2018-02-13T22:32:03.375Z,10.13
2018-02-13T22:34:32.765Z,10.57
2018-02-13T22:37:03.203Z,11.60
2018-02-13T22:39:53.996Z,10.87
2018-02-13T22:42:23.353Z,11.40
2018-02-13T22:44:52.950Z,9.87
2018-02-13T22:47:22.173Z,12.13
2018-02-13T22:49:51.497Z,11.97
2018-02-13T22:52:27.692Z,12.97
2018-02-13T22:54:56.945Z,12.90
2018-02-13T22:57:27.015Z,11.83
2018-02-13T22:59:58.289Z,11.37
2018-02-13T23:02:27.564Z,11.23
2018-02-13T23:05:09.908Z,12.20
2018-02-13T23:07:39.182Z,11.90
2018-02-13T23:10:10.472Z,12.20
2018-02-13T23:12:39.724Z,10.87
2018-02-13T23:15:09.001Z,11.77
2018-02-13T23:17:38.305Z,10.50
2018-02-13T23:20:07.592Z,11.33
2018-02-13T23:22:37.576Z,11.00
2018-02-13T23:25:06.834Z,11.47
2018-02-13T23:27:36.271Z,12.60
2018-02-13T23:30:05.536Z,12.40
2018-02-13T23:32:34.809Z,11.00
2018-02-13T23:35:04.054Z,10.00
2018-02-13T23:37:33.354Z,11.33
2018-02-13T23:40:02.683Z,11.37
2018-02-13T23:42:31.922Z,10.63
2018-02-13T23:45:01.974Z,10.73
2018-02-13T23:47:31.282Z,9.87
2018-02-13T23:50:00.590Z,9.60
2018-02-13T23:52:30.676Z,10.07
2018-02-13T23:54:59.962Z,9.00
2018-02-13T23:57:29.244Z,9.87
2018-02-13T23:59:58.507Z,10.30
